TKJ2RB LTAC-LTBS
Flight info
| Callsign | TKJ2RB |
|---|---|
| Flight time | 0h 56m |
| Altitude | 36000 |
| Route | HALIL UW77 AYT UW79 ALTIN |
| Aircraft | B738/M-SDE2E3FGHIRWXY/LB1 |
Departure
| Time | 2026-04-18 06:28 |
|---|---|
| Airport | Esenboğa International Airport (LTAC) |
Arrival
| Time | 2026-04-18 07:25 |
|---|---|
| Airport | Dalaman International Airport (LTBS) |
| Time | Latitude | Longitude | Altitude | Speed | Heading |
|---|---|---|---|---|---|
| 2026-04-18 06:15 | 40.11925 | 32.99440 | 3112 ft | 0 kts | 352° |
| 2026-04-18 06:20 | 40.11917 | 32.99442 | 3112 ft | 4 kts | 351° |
| 2026-04-18 06:20 | 40.11890 | 32.99447 | 3112 ft | 4 kts | 350° |
| 2026-04-18 06:21 | 40.11863 | 32.99453 | 3112 ft | 4 kts | 348° |
| 2026-04-18 06:21 | 40.11844 | 32.99458 | 3112 ft | 1 kts | 347° |
| 2026-04-18 06:21 | 40.11842 | 32.99459 | 3112 ft | 0 kts | 347° |
| 2026-04-18 06:23 | 40.11846 | 32.99458 | 3112 ft | 2 kts | 347° |
| 2026-04-18 06:23 | 40.11855 | 32.99441 | 3112 ft | 3 kts | 288° |
| 2026-04-18 06:24 | 40.11850 | 32.99411 | 3112 ft | 4 kts | 258° |
| 2026-04-18 06:24 | 40.11844 | 32.99369 | 3112 ft | 5 kts | 258° |
| 2026-04-18 06:24 | 40.11836 | 32.99324 | 3112 ft | 6 kts | 257° |
| 2026-04-18 06:24 | 40.11823 | 32.99263 | 3112 ft | 8 kts | 253° |
| 2026-04-18 06:25 | 40.11804 | 32.99196 | 3112 ft | 8 kts | 247° |
| 2026-04-18 06:25 | 40.11776 | 32.99117 | 3112 ft | 10 kts | 254° |
| 2026-04-18 06:25 | 40.11805 | 32.99037 | 3112 ft | 10 kts | 297° |
| 2026-04-18 06:25 | 40.11769 | 32.98969 | 3112 ft | 10 kts | 214° |
| 2026-04-18 06:26 | 40.11716 | 32.98918 | 3112 ft | 9 kts | 217° |
| 2026-04-18 06:26 | 40.11680 | 32.98853 | 3112 ft | 10 kts | 282° |
| 2026-04-18 06:26 | 40.11717 | 32.98782 | 3111 ft | 9 kts | 306° |
| 2026-04-18 06:26 | 40.11757 | 32.98710 | 3112 ft | 10 kts | 306° |
| 2026-04-18 06:27 | 40.11797 | 32.98639 | 3112 ft | 10 kts | 306° |
| 2026-04-18 06:27 | 40.11847 | 32.98548 | 3112 ft | 13 kts | 306° |
| 2026-04-18 06:27 | 40.11920 | 32.98504 | 3112 ft | 13 kts | 22° |
| 2026-04-18 06:27 | 40.12004 | 32.98581 | 3113 ft | 29 kts | 37° |
| 2026-04-18 06:28 | 40.12368 | 32.98929 | 3117 ft | 99 kts | 36° |
| 2026-04-18 06:28 | 40.13093 | 32.99625 | 3124 ft | 157 kts | 37° |
| 2026-04-18 06:28 | 40.14055 | 33.00516 | 3560 ft | 174 kts | 36° |
| 2026-04-18 06:28 | 40.15043 | 33.01565 | 4215 ft | 187 kts | 40° |
| 2026-04-18 06:29 | 40.16020 | 33.02617 | 5194 ft | 183 kts | 40° |
| 2026-04-18 06:29 | 40.17088 | 33.03762 | 5559 ft | 215 kts | 40° |
| 2026-04-18 06:29 | 40.18274 | 33.05051 | 6115 ft | 228 kts | 40° |
| 2026-04-18 06:29 | 40.19580 | 33.06420 | 6263 ft | 256 kts | 32° |
| 2026-04-18 06:30 | 40.21283 | 33.07124 | 6854 ft | 261 kts | 360° |
| 2026-04-18 06:30 | 40.23071 | 33.06609 | 7375 ft | 274 kts | 329° |
| 2026-04-18 06:30 | 40.24539 | 33.04976 | 8081 ft | 281 kts | 309° |
| 2026-04-18 06:30 | 40.25766 | 33.02967 | 9007 ft | 284 kts | 306° |
| 2026-04-18 06:31 | 40.26948 | 33.00877 | 9899 ft | 286 kts | 298° |
| 2026-04-18 06:31 | 40.27516 | 32.98383 | 10474 ft | 296 kts | 269° |
| 2026-04-18 06:31 | 40.27046 | 32.95722 | 10657 ft | 318 kts | 240° |
| 2026-04-18 06:31 | 40.25580 | 32.93446 | 10970 ft | 336 kts | 221° |
| 2026-04-18 06:32 | 40.23668 | 32.91626 | 11582 ft | 344 kts | 210° |
| 2026-04-18 06:32 | 40.21548 | 32.90158 | 12352 ft | 346 kts | 205° |
| 2026-04-18 06:32 | 40.19338 | 32.88866 | 13107 ft | 350 kts | 203° |
| 2026-04-18 06:32 | 40.17092 | 32.87598 | 13799 ft | 354 kts | 204° |
| 2026-04-18 06:33 | 40.14832 | 32.86273 | 14440 ft | 358 kts | 205° |
| 2026-04-18 06:33 | 40.12569 | 32.84883 | 15063 ft | 362 kts | 205° |
| 2026-04-18 06:33 | 40.10290 | 32.83429 | 15687 ft | 365 kts | 206° |
| 2026-04-18 06:33 | 40.08006 | 32.81933 | 16299 ft | 370 kts | 207° |
| 2026-04-18 06:34 | 40.05703 | 32.80400 | 16897 ft | 374 kts | 207° |
| 2026-04-18 06:34 | 40.03377 | 32.78839 | 17514 ft | 378 kts | 207° |
| 2026-04-18 06:34 | 40.01029 | 32.77257 | 18115 ft | 381 kts | 207° |
| 2026-04-18 06:34 | 39.98660 | 32.75656 | 18645 ft | 384 kts | 207° |
| 2026-04-18 06:35 | 39.96276 | 32.74046 | 19187 ft | 387 kts | 207° |
| 2026-04-18 06:35 | 39.93899 | 32.72442 | 19709 ft | 390 kts | 207° |
| 2026-04-18 06:35 | 39.91445 | 32.70787 | 20239 ft | 394 kts | 207° |
| 2026-04-18 06:35 | 39.89003 | 32.69141 | 20754 ft | 397 kts | 207° |
| 2026-04-18 06:36 | 39.86544 | 32.67485 | 21277 ft | 400 kts | 207° |
| 2026-04-18 06:36 | 39.84096 | 32.65839 | 21776 ft | 403 kts | 206° |
| 2026-04-18 06:36 | 39.81595 | 32.64158 | 22262 ft | 406 kts | 206° |
| 2026-04-18 06:36 | 39.79078 | 32.62468 | 22738 ft | 409 kts | 206° |
| 2026-04-18 06:37 | 39.76536 | 32.60763 | 23148 ft | 414 kts | 206° |
| 2026-04-18 06:37 | 39.73962 | 32.59037 | 23517 ft | 418 kts | 206° |
| 2026-04-18 06:37 | 39.71371 | 32.57301 | 23932 ft | 419 kts | 207° |
| 2026-04-18 06:37 | 39.68769 | 32.55559 | 24342 ft | 421 kts | 207° |
| 2026-04-18 06:38 | 39.66157 | 32.53812 | 24710 ft | 424 kts | 206° |
| 2026-04-18 06:38 | 39.63522 | 32.52052 | 25077 ft | 427 kts | 206° |
| 2026-04-18 06:38 | 39.60874 | 32.50283 | 25432 ft | 430 kts | 206° |
| 2026-04-18 06:38 | 39.58207 | 32.48504 | 25783 ft | 432 kts | 206° |
| 2026-04-18 06:39 | 39.55527 | 32.46718 | 26186 ft | 433 kts | 206° |
| 2026-04-18 06:39 | 39.52840 | 32.44928 | 26594 ft | 434 kts | 207° |
| 2026-04-18 06:39 | 39.50172 | 32.43153 | 26848 ft | 439 kts | 206° |
| 2026-04-18 06:39 | 39.47445 | 32.41341 | 27147 ft | 442 kts | 206° |
| 2026-04-18 06:40 | 39.44705 | 32.39520 | 27498 ft | 443 kts | 206° |
| 2026-04-18 06:40 | 39.41959 | 32.37697 | 27838 ft | 445 kts | 206° |
| 2026-04-18 06:40 | 39.39194 | 32.35866 | 28176 ft | 446 kts | 207° |
| 2026-04-18 06:40 | 39.36419 | 32.34037 | 28443 ft | 450 kts | 207° |
| 2026-04-18 06:41 | 39.33603 | 32.32198 | 28575 ft | 456 kts | 206° |
| 2026-04-18 06:41 | 39.30762 | 32.30349 | 28876 ft | 457 kts | 206° |
| 2026-04-18 06:41 | 39.27916 | 32.28499 | 29229 ft | 458 kts | 206° |
| 2026-04-18 06:41 | 39.25067 | 32.26649 | 29578 ft | 458 kts | 207° |
| 2026-04-18 06:42 | 39.22267 | 32.24830 | 30094 ft | 453 kts | 207° |
| 2026-04-18 06:42 | 39.19459 | 32.23006 | 30560 ft | 450 kts | 207° |
| 2026-04-18 06:42 | 39.16663 | 32.21191 | 30901 ft | 449 kts | 207° |
| 2026-04-18 06:42 | 39.13870 | 32.19378 | 31192 ft | 450 kts | 207° |
| 2026-04-18 06:43 | 39.11072 | 32.17564 | 31534 ft | 449 kts | 207° |
| 2026-04-18 06:43 | 39.08296 | 32.15766 | 31963 ft | 446 kts | 208° |
| 2026-04-18 06:43 | 39.05532 | 32.13977 | 32361 ft | 444 kts | 208° |
| 2026-04-18 06:43 | 39.02776 | 32.12196 | 32668 ft | 444 kts | 208° |
| 2026-04-18 06:44 | 39.00015 | 32.10412 | 32958 ft | 444 kts | 208° |
| 2026-04-18 06:44 | 38.97257 | 32.08632 | 33305 ft | 443 kts | 208° |
| 2026-04-18 06:44 | 38.94511 | 32.06861 | 33658 ft | 441 kts | 207° |
| 2026-04-18 06:44 | 38.91763 | 32.05090 | 33889 ft | 442 kts | 208° |
| 2026-04-18 06:45 | 38.89052 | 32.03345 | 34158 ft | 440 kts | 208° |
| 2026-04-18 06:45 | 38.86318 | 32.01586 | 34446 ft | 439 kts | 208° |
| 2026-04-18 06:45 | 38.83584 | 31.99830 | 34675 ft | 439 kts | 208° |
| 2026-04-18 06:45 | 38.80846 | 31.98071 | 34890 ft | 439 kts | 208° |
| 2026-04-18 06:46 | 38.78114 | 31.96318 | 35130 ft | 439 kts | 208° |
| 2026-04-18 06:46 | 38.75382 | 31.94567 | 35380 ft | 438 kts | 208° |
| 2026-04-18 06:46 | 38.72661 | 31.92825 | 35615 ft | 438 kts | 208° |
| 2026-04-18 06:46 | 38.69931 | 31.91077 | 35729 ft | 440 kts | 208° |
| 2026-04-18 06:47 | 38.67193 | 31.89327 | 35724 ft | 442 kts | 208° |
| 2026-04-18 06:47 | 38.61708 | 31.85825 | 35724 ft | 438 kts | 208° |
| 2026-04-18 06:48 | 38.56263 | 31.82354 | 35727 ft | 435 kts | 207° |
| 2026-04-18 06:48 | 38.51763 | 31.79490 | 35737 ft | 434 kts | 208° |
| 2026-04-18 06:49 | 38.46360 | 31.76057 | 35734 ft | 434 kts | 208° |
| 2026-04-18 06:49 | 38.40952 | 31.72625 | 35726 ft | 435 kts | 207° |
| 2026-04-18 06:50 | 38.35520 | 31.69185 | 35733 ft | 436 kts | 207° |
| 2026-04-18 06:50 | 38.30068 | 31.65737 | 35730 ft | 438 kts | 207° |
| 2026-04-18 06:51 | 38.24646 | 31.62314 | 35735 ft | 440 kts | 207° |
| 2026-04-18 06:51 | 38.19145 | 31.58846 | 35731 ft | 442 kts | 207° |
| 2026-04-18 06:52 | 38.13708 | 31.55291 | 35727 ft | 442 kts | 214° |
| 2026-04-18 06:52 | 38.09082 | 31.50197 | 35728 ft | 441 kts | 231° |
| 2026-04-18 06:53 | 38.05315 | 31.44055 | 35740 ft | 441 kts | 233° |
| 2026-04-18 06:53 | 38.01579 | 31.37873 | 35741 ft | 442 kts | 233° |
| 2026-04-18 06:54 | 37.97812 | 31.31708 | 35738 ft | 442 kts | 232° |
| 2026-04-18 06:54 | 37.94050 | 31.25606 | 35732 ft | 441 kts | 232° |
| 2026-04-18 06:55 | 37.90266 | 31.19492 | 35737 ft | 440 kts | 233° |
| 2026-04-18 06:55 | 37.86488 | 31.13401 | 35738 ft | 440 kts | 232° |
| 2026-04-18 06:56 | 37.82706 | 31.07314 | 35737 ft | 439 kts | 233° |
| 2026-04-18 06:56 | 37.78929 | 31.01244 | 35745 ft | 439 kts | 233° |
| 2026-04-18 06:57 | 37.75152 | 30.95187 | 35742 ft | 438 kts | 233° |
| 2026-04-18 06:57 | 37.69478 | 30.86106 | 35746 ft | 439 kts | 233° |
| 2026-04-18 06:58 | 37.65689 | 30.80057 | 35749 ft | 439 kts | 233° |
| 2026-04-18 06:58 | 37.61920 | 30.74051 | 35744 ft | 439 kts | 233° |
| 2026-04-18 06:59 | 37.58096 | 30.67966 | 35151 ft | 446 kts | 233° |
| 2026-04-18 06:59 | 37.56169 | 30.64906 | 34554 ft | 445 kts | 233° |
| 2026-04-18 06:59 | 37.54246 | 30.61854 | 34022 ft | 444 kts | 232° |
| 2026-04-18 07:00 | 37.52334 | 30.58823 | 33575 ft | 439 kts | 232° |
| 2026-04-18 07:00 | 37.50441 | 30.55824 | 33051 ft | 436 kts | 232° |
| 2026-04-18 07:00 | 37.48561 | 30.52849 | 32596 ft | 431 kts | 232° |
| 2026-04-18 07:00 | 37.46709 | 30.49920 | 32169 ft | 425 kts | 232° |
| 2026-04-18 07:01 | 37.44875 | 30.47021 | 31726 ft | 421 kts | 232° |
| 2026-04-18 07:01 | 37.43055 | 30.44148 | 31291 ft | 417 kts | 231° |
| 2026-04-18 07:01 | 37.41252 | 30.41304 | 30869 ft | 413 kts | 231° |
| 2026-04-18 07:01 | 37.39466 | 30.38489 | 30447 ft | 410 kts | 231° |
| 2026-04-18 07:02 | 37.37716 | 30.35734 | 30040 ft | 407 kts | 231° |
| 2026-04-18 07:02 | 37.35954 | 30.32962 | 29599 ft | 404 kts | 231° |
| 2026-04-18 07:02 | 37.34207 | 30.30216 | 29130 ft | 400 kts | 231° |
| 2026-04-18 07:02 | 37.32480 | 30.27503 | 28699 ft | 396 kts | 231° |
| 2026-04-18 07:03 | 37.30761 | 30.24806 | 28272 ft | 392 kts | 231° |
| 2026-04-18 07:03 | 37.29065 | 30.22146 | 27837 ft | 389 kts | 231° |
| 2026-04-18 07:03 | 37.27377 | 30.19502 | 27416 ft | 386 kts | 231° |
| 2026-04-18 07:03 | 37.25703 | 30.16881 | 26986 ft | 383 kts | 230° |
| 2026-04-18 07:04 | 37.24038 | 30.14276 | 26578 ft | 381 kts | 231° |
| 2026-04-18 07:04 | 37.22387 | 30.11696 | 26170 ft | 378 kts | 231° |
| 2026-04-18 07:04 | 37.20741 | 30.09126 | 25772 ft | 376 kts | 231° |
| 2026-04-18 07:04 | 37.19107 | 30.06575 | 25362 ft | 374 kts | 231° |
| 2026-04-18 07:05 | 37.17475 | 30.04031 | 24952 ft | 372 kts | 231° |
| 2026-04-18 07:05 | 37.15857 | 30.01508 | 24555 ft | 371 kts | 231° |
| 2026-04-18 07:05 | 37.14239 | 29.98990 | 24159 ft | 370 kts | 231° |
| 2026-04-18 07:05 | 37.12627 | 29.96482 | 23747 ft | 369 kts | 231° |
| 2026-04-18 07:06 | 37.11036 | 29.94009 | 23333 ft | 369 kts | 231° |
| 2026-04-18 07:06 | 37.09425 | 29.91505 | 22870 ft | 369 kts | 231° |
| 2026-04-18 07:06 | 37.07817 | 29.89008 | 22441 ft | 367 kts | 231° |
| 2026-04-18 07:06 | 37.06220 | 29.86530 | 22029 ft | 365 kts | 231° |
| 2026-04-18 07:07 | 37.04628 | 29.84063 | 21625 ft | 363 kts | 231° |
| 2026-04-18 07:07 | 37.03048 | 29.81616 | 21227 ft | 361 kts | 231° |
| 2026-04-18 07:07 | 37.01476 | 29.79182 | 20837 ft | 359 kts | 231° |
| 2026-04-18 07:07 | 36.99908 | 29.76757 | 20446 ft | 357 kts | 232° |
| 2026-04-18 07:08 | 36.98344 | 29.74340 | 20056 ft | 356 kts | 231° |
| 2026-04-18 07:08 | 36.96787 | 29.71933 | 19671 ft | 355 kts | 231° |
| 2026-04-18 07:08 | 36.95238 | 29.69542 | 19287 ft | 354 kts | 232° |
| 2026-04-18 07:08 | 36.93691 | 29.67157 | 18898 ft | 353 kts | 232° |
| 2026-04-18 07:09 | 36.92167 | 29.64808 | 18515 ft | 352 kts | 232° |
| 2026-04-18 07:09 | 36.90626 | 29.62434 | 18106 ft | 352 kts | 231° |
| 2026-04-18 07:09 | 36.89086 | 29.60064 | 17689 ft | 351 kts | 231° |
| 2026-04-18 07:09 | 36.87550 | 29.57701 | 17271 ft | 350 kts | 231° |
| 2026-04-18 07:10 | 36.86021 | 29.55350 | 16869 ft | 348 kts | 232° |
| 2026-04-18 07:10 | 36.84498 | 29.53010 | 16478 ft | 346 kts | 232° |
| 2026-04-18 07:10 | 36.82979 | 29.50679 | 16088 ft | 345 kts | 232° |
| 2026-04-18 07:10 | 36.81471 | 29.48364 | 15714 ft | 343 kts | 232° |
| 2026-04-18 07:11 | 36.79963 | 29.46052 | 15336 ft | 342 kts | 232° |
| 2026-04-18 07:11 | 36.78463 | 29.43755 | 14955 ft | 341 kts | 232° |
| 2026-04-18 07:11 | 36.76962 | 29.41459 | 14588 ft | 340 kts | 231° |
| 2026-04-18 07:11 | 36.75376 | 29.39259 | 14144 ft | 342 kts | 226° |
| 2026-04-18 07:12 | 36.73691 | 29.37223 | 13760 ft | 341 kts | 224° |
| 2026-04-18 07:12 | 36.71934 | 29.35178 | 13349 ft | 341 kts | 224° |
| 2026-04-18 07:12 | 36.70224 | 29.33191 | 12952 ft | 339 kts | 224° |
| 2026-04-18 07:12 | 36.68503 | 29.31176 | 12568 ft | 338 kts | 224° |
| 2026-04-18 07:13 | 36.66802 | 29.29169 | 12192 ft | 336 kts | 224° |
| 2026-04-18 07:13 | 36.65116 | 29.27170 | 11809 ft | 334 kts | 225° |
| 2026-04-18 07:13 | 36.63443 | 29.25180 | 11446 ft | 332 kts | 225° |
| 2026-04-18 07:13 | 36.61779 | 29.23199 | 11083 ft | 330 kts | 225° |
| 2026-04-18 07:14 | 36.60125 | 29.21229 | 10728 ft | 328 kts | 225° |
| 2026-04-18 07:14 | 36.58477 | 29.19267 | 10379 ft | 327 kts | 225° |
| 2026-04-18 07:14 | 36.56838 | 29.17316 | 10094 ft | 323 kts | 225° |
| 2026-04-18 07:14 | 36.55237 | 29.15412 | 10059 ft | 311 kts | 225° |
| 2026-04-18 07:15 | 36.53702 | 29.13589 | 10039 ft | 298 kts | 225° |
| 2026-04-18 07:15 | 36.52248 | 29.11864 | 9949 ft | 289 kts | 225° |
| 2026-04-18 07:15 | 36.50797 | 29.10138 | 9638 ft | 289 kts | 225° |
| 2026-04-18 07:15 | 36.49346 | 29.08411 | 9330 ft | 289 kts | 225° |
| 2026-04-18 07:16 | 36.47893 | 29.06684 | 8982 ft | 289 kts | 225° |
| 2026-04-18 07:16 | 36.46440 | 29.04958 | 8650 ft | 289 kts | 225° |
| 2026-04-18 07:16 | 36.44995 | 29.03233 | 8320 ft | 288 kts | 228° |
| 2026-04-18 07:16 | 36.43972 | 29.01150 | 7981 ft | 282 kts | 255° |
| 2026-04-18 07:17 | 36.43581 | 28.98778 | 7691 ft | 279 kts | 263° |
| 2026-04-18 07:17 | 36.43314 | 28.96395 | 7368 ft | 278 kts | 264° |
| 2026-04-18 07:17 | 36.43053 | 28.94020 | 7049 ft | 278 kts | 263° |
| 2026-04-18 07:17 | 36.42784 | 28.91682 | 6733 ft | 277 kts | 264° |
| 2026-04-18 07:18 | 36.42502 | 28.89318 | 6424 ft | 276 kts | 264° |
| 2026-04-18 07:18 | 36.42218 | 28.86965 | 6113 ft | 275 kts | 263° |
| 2026-04-18 07:18 | 36.41960 | 28.84616 | 5783 ft | 273 kts | 270° |
| 2026-04-18 07:18 | 36.42328 | 28.82349 | 5435 ft | 268 kts | 298° |
| 2026-04-18 07:19 | 36.43444 | 28.80549 | 5151 ft | 261 kts | 320° |
| 2026-04-18 07:19 | 36.44908 | 28.79291 | 4873 ft | 251 kts | 328° |
| 2026-04-18 07:19 | 36.46362 | 28.78147 | 4580 ft | 244 kts | 327° |
| 2026-04-18 07:19 | 36.47773 | 28.77029 | 4303 ft | 237 kts | 327° |
| 2026-04-18 07:20 | 36.49161 | 28.75920 | 4052 ft | 239 kts | 327° |
| 2026-04-18 07:20 | 36.50564 | 28.74792 | 3766 ft | 239 kts | 326° |
| 2026-04-18 07:20 | 36.51912 | 28.73704 | 3505 ft | 226 kts | 326° |
| 2026-04-18 07:20 | 36.53313 | 28.73014 | 3250 ft | 212 kts | 358° |
| 2026-04-18 07:21 | 36.54642 | 28.73476 | 3112 ft | 191 kts | 20° |
| 2026-04-18 07:21 | 36.55832 | 28.73975 | 2911 ft | 170 kts | 11° |
| 2026-04-18 07:21 | 36.56937 | 28.74337 | 2669 ft | 162 kts | 11° |
| 2026-04-18 07:21 | 36.58027 | 28.74700 | 2448 ft | 161 kts | 12° |
| 2026-04-18 07:22 | 36.59103 | 28.75066 | 2252 ft | 161 kts | 13° |
| 2026-04-18 07:22 | 36.60193 | 28.75439 | 2026 ft | 163 kts | 13° |
| 2026-04-18 07:22 | 36.61276 | 28.75811 | 1811 ft | 159 kts | 12° |
| 2026-04-18 07:22 | 36.62345 | 28.76176 | 1596 ft | 160 kts | 13° |
| 2026-04-18 07:23 | 36.63427 | 28.76546 | 1388 ft | 163 kts | 13° |
| 2026-04-18 07:23 | 36.64515 | 28.76920 | 1157 ft | 161 kts | 14° |
| 2026-04-18 07:23 | 36.65579 | 28.77285 | 940 ft | 157 kts | 13° |
| 2026-04-18 07:23 | 36.66644 | 28.77649 | 740 ft | 160 kts | 13° |
| 2026-04-18 07:24 | 36.67712 | 28.78019 | 506 ft | 161 kts | 14° |
| 2026-04-18 07:24 | 36.68784 | 28.78384 | 294 ft | 160 kts | 14° |
| 2026-04-18 07:24 | 36.69863 | 28.78750 | 86 ft | 162 kts | 14° |
| 2026-04-18 07:24 | 36.70921 | 28.79118 | 12 ft | 146 kts | 15° |
| 2026-04-18 07:25 | 36.71695 | 28.79381 | 11 ft | 79 kts | 15° |
| 2026-04-18 07:25 | 36.72036 | 28.79413 | 11 ft | 35 kts | 348° |
| 2026-04-18 07:25 | 36.72208 | 28.79357 | 11 ft | 21 kts | 346° |
| 2026-04-18 07:25 | 36.72286 | 28.79292 | 11 ft | 12 kts | 291° |
| 2026-04-18 07:26 | 36.72304 | 28.79195 | 11 ft | 9 kts | 284° |
| 2026-04-18 07:26 | 36.72291 | 28.79146 | 12 ft | 3 kts | 193° |
| 2026-04-18 07:26 | 36.72259 | 28.79138 | 11 ft | 8 kts | 192° |
| 2026-04-18 07:26 | 36.72180 | 28.79111 | 11 ft | 13 kts | 195° |
| 2026-04-18 07:27 | 36.72092 | 28.79082 | 11 ft | 13 kts | 195° |
| 2026-04-18 07:27 | 36.72007 | 28.79053 | 11 ft | 13 kts | 195° |
| 2026-04-18 07:27 | 36.71924 | 28.79023 | 11 ft | 12 kts | 197° |
| 2026-04-18 07:27 | 36.71844 | 28.78993 | 11 ft | 12 kts | 195° |
| 2026-04-18 07:28 | 36.71764 | 28.78969 | 11 ft | 12 kts | 195° |
| 2026-04-18 07:28 | 36.71732 | 28.78915 | 11 ft | 8 kts | 285° |
| 2026-04-18 07:28 | 36.71743 | 28.78865 | 13 ft | 3 kts | 285° |
| 2026-04-18 07:28 | 36.71744 | 28.78862 | 13 ft | 0 kts | 285° |